Time;durP1;ratioP1;P1;durP2;ratioP2;P2;SDS_P1;SDS_P2;PMS_P1;PMS_P2;Temp;Humidity;BMP_temperature;BMP_pressure;BME280_temperature;BME280_humidity;BME280_pressure;Samples;Min_cycle;Max_cycle;Signal;HPM_P1;HPM_P2
2022/07/07 00:01:20;;;;;;;5.03;3.78;;;;;;;15.81;100.00;99066.19;5092452;28;20052;-57
2022/07/07 00:03:46;;;;;;;5.30;4.25;;;;;;;15.65;100.00;99077.66;5092204;28;20059;-56
2022/07/07 00:06:13;;;;;;;6.20;3.50;;;;;;;15.63;100.00;99057.94;5092298;28;20104;-55
2022/07/07 00:08:40;;;;;;;4.22;3.80;;;;;;;15.76;100.00;99061.84;5091941;28;20088;-56
2022/07/07 00:11:06;;;;;;;4.75;3.83;;;;;;;15.79;100.00;99071.31;5092300;28;20049;-56
2022/07/07 00:13:32;;;;;;;3.42;3.20;;;;;;;15.84;100.00;99074.44;5092037;28;20189;-55
2022/07/07 00:15:59;;;;;;;3.50;3.30;;;;;;;15.74;100.00;99086.34;5091997;28;20536;-57
2022/07/07 00:18:25;;;;;;;3.63;3.30;;;;;;;15.86;100.00;99090.63;5091916;28;20051;-56
2022/07/07 00:20:51;;;;;;;5.38;3.55;;;;;;;15.65;100.00;99092.25;5091722;28;20139;-57
2022/07/07 00:23:18;;;;;;;3.88;3.08;;;;;;;15.63;100.00;99091.09;5091841;28;20048;-55
2022/07/07 00:25:45;;;;;;;2.72;2.53;;;;;;;15.79;100.00;99099.72;5091721;28;20048;-55
2022/07/07 00:28:11;;;;;;;3.63;3.33;;;;;;;15.81;100.00;99115.94;5091944;28;20083;-55
2022/07/07 00:30:38;;;;;;;6.47;3.75;;;;;;;15.75;100.00;99113.56;5091689;28;20101;-55
2022/07/07 00:33:04;;;;;;;3.28;2.72;;;;;;;15.83;100.00;99110.78;5092157;28;20072;-55
2022/07/07 00:35:30;;;;;;;4.88;3.42;;;;;;;15.77;100.00;99127.78;5091761;28;20498;-56
2022/07/07 00:37:57;;;;;;;9.57;2.63;;;;;;;15.75;100.00;99119.09;5092111;28;20380;-57
2022/07/07 00:40:23;;;;;;;5.32;2.90;;;;;;;15.68;100.00;99119.13;5091711;28;20456;-55
2022/07/07 00:42:50;;;;;;;3.10;2.80;;;;;;;15.74;100.00;99130.56;5091645;28;20059;-57
2022/07/07 00:45:16;;;;;;;3.22;2.92;;;;;;;15.73;100.00;99132.53;5091520;28;20051;-55
2022/07/07 00:47:43;;;;;;;2.83;2.50;;;;;;;15.77;100.00;99133.31;5091470;28;20086;-56
2022/07/07 00:50:10;;;;;;;4.38;2.97;;;;;;;15.70;100.00;99133.34;5091266;28;20590;-56
2022/07/07 00:52:37;;;;;;;2.70;2.50;;;;;;;15.68;100.00;99137.69;5091242;28;20090;-55
2022/07/07 00:55:08;;;;;;;2.70;2.50;;;;;;;15.67;100.00;99147.19;5091410;28;20044;-57
2022/07/07 00:57:35;;;;;;;4.65;2.95;;;;;;;15.59;100.00;99142.81;5091649;28;20079;-55
2022/07/07 01:00:07;;;;;;;5.05;3.13;;;;;;;15.64;100.00;99143.19;5091952;28;20425;-56
2022/07/07 01:02:34;;;;;;;4.72;2.90;;;;;;;15.66;100.00;99137.25;5090749;28;20057;-56
2022/07/07 01:05:03;;;;;;;4.72;3.05;;;;;;;15.68;100.00;99143.22;5091470;28;20052;-55
2022/07/07 01:07:31;;;;;;;5.57;2.88;;;;;;;15.69;100.00;99140.06;5091112;28;20087;-56
2022/07/07 01:09:58;;;;;;;4.68;2.83;;;;;;;15.71;100.00;99137.66;5091334;28;20090;-55
2022/07/07 01:12:25;;;;;;;7.40;3.03;;;;;;;15.70;100.00;99127.03;5091152;28;20471;-57
2022/07/07 01:14:52;;;;;;;3.30;2.78;;;;;;;15.75;100.00;99123.84;5090935;28;20138;-56
2022/07/07 01:17:19;;;;;;;9.90;3.50;;;;;;;15.66;100.00;99137.25;5091094;28;20056;-55
2022/07/07 01:19:45;;;;;;;4.70;3.30;;;;;;;15.71;100.00;99118.31;5090910;28;20048;-56
2022/07/07 01:22:13;;;;;;;5.68;3.30;;;;;;;15.68;100.00;99123.88;5091420;28;20058;-56
2022/07/07 01:24:41;;;;;;;3.63;2.72;;;;;;;15.74;100.00;99131.34;5090895;28;20503;-54
2022/07/07 01:27:10;;;;;;;7.25;2.70;;;;;;;15.72;100.00;99147.53;5091209;28;20052;-56
2022/07/07 01:29:37;;;;;;;3.25;2.95;;;;;;;15.61;100.00;99155.03;5090990;28;20085;-55
2022/07/07 01:32:05;;;;;;;4.65;3.65;;;;;;;15.43;100.00;99148.78;5091260;28;20047;-55
2022/07/07 01:34:32;;;;;;;3.10;2.80;;;;;;;15.53;100.00;99136.91;5090594;28;20553;-56
2022/07/07 01:36:58;;;;;;;4.85;3.08;;;;;;;15.49;100.00;99131.41;5090978;28;20142;-57
2022/07/07 01:39:25;;;;;;;7.45;2.97;;;;;;;15.51;100.00;99123.50;5090795;28;20052;-57
2022/07/07 01:41:52;;;;;;;3.83;3.08;;;;;;;15.51;100.00;99144.81;5090782;28;20044;-56
2022/07/07 01:44:18;;;;;;;4.07;2.85;;;;;;;15.62;100.00;99145.56;5090594;28;20058;-56
2022/07/07 01:46:45;;;;;;;5.93;3.17;;;;;;;15.59;100.00;99154.66;5090626;28;20048;-56
2022/07/07 01:49:11;;;;;;;5.57;3.40;;;;;;;15.61;100.00;99160.56;5090589;28;20499;-57
2022/07/07 01:51:38;;;;;;;4.75;3.40;;;;;;;15.61;100.00;99157.03;5090477;28;20139;-56
2022/07/07 01:54:04;;;;;;;3.88;3.30;;;;;;;15.74;100.00;99161.75;5090804;28;20088;-56
2022/07/07 01:56:30;;;;;;;5.88;3.65;;;;;;;15.79;100.00;99168.84;5090464;28;20130;-56
2022/07/07 01:58:57;;;;;;;8.05;3.60;;;;;;;15.73;100.00;99179.53;5090770;28;20408;-56
2022/07/07 02:01:24;;;;;;;4.18;3.22;;;;;;;15.71;100.00;99164.53;5090515;28;20043;-57
2022/07/07 02:03:50;;;;;;;6.32;3.35;;;;;;;15.87;100.00;99166.84;5090429;28;20056;-56
2022/07/07 02:06:16;;;;;;;3.90;3.40;;;;;;;15.80;100.00;99184.25;5090299;28;20058;-56
2022/07/07 02:08:43;;;;;;;6.65;3.80;;;;;;;15.80;100.00;99195.31;5090356;28;20131;-56
2022/07/07 02:11:15;;;;;;;3.72;3.35;;;;;;;15.76;100.00;99194.50;5090093;28;20450;-56
2022/07/07 02:13:42;;;;;;;5.70;3.50;;;;;;;15.76;100.00;99203.59;5089124;28;20087;-55
2022/07/07 02:16:10;;;;;;;6.32;3.20;;;;;;;15.72;100.00;99199.25;5090238;28;20294;-55
2022/07/07 02:18:38;;;;;;;4.63;3.95;;;;;;;15.79;100.00;99210.28;5090131;28;20048;-56
2022/07/07 02:21:06;;;;;;;4.05;3.20;;;;;;;15.81;100.00;99215.44;5090239;28;20101;-55
2022/07/07 02:23:33;;;;;;;4.80;3.30;;;;;;;15.91;100.00;99223.69;5090067;28;20055;-56
2022/07/07 02:25:59;;;;;;;6.10;4.50;;;;;;;15.80;100.00;99222.94;5090186;28;20152;-55
2022/07/07 02:28:26;;;;;;;4.07;3.55;;;;;;;15.81;100.00;99221.75;5089873;28;20048;-56
2022/07/07 02:30:53;;;;;;;5.53;3.42;;;;;;;15.86;100.00;99231.59;5090132;28;20054;-55
2022/07/07 02:33:21;;;;;;;5.13;4.13;;;;;;;15.85;100.00;99246.63;5089809;28;20427;-57
2022/07/07 02:35:48;;;;;;;9.65;3.85;;;;;;;15.84;100.00;99247.81;5089790;28;20056;-56
2022/07/07 02:38:15;;;;;;;7.15;3.95;;;;;;;15.77;100.00;99237.56;5089817;28;20086;-57
2022/07/07 02:40:42;;;;;;;4.60;3.50;;;;;;;15.64;100.00;99244.66;5089646;28;20105;-55
2022/07/07 02:43:12;;;;;;;7.03;4.13;;;;;;;15.51;100.00;99258.88;5089708;28;20051;-55
2022/07/07 02:45:39;;;;;;;7.07;4.03;;;;;;;15.32;100.00;99250.97;5089797;28;20060;-55
2022/07/07 02:48:05;;;;;;;3.80;3.50;;;;;;;15.64;100.00;99222.56;5089902;28;20574;-55
2022/07/07 02:50:33;;;;;;;4.20;3.15;;;;;;;15.57;100.00;99212.31;5089706;28;20080;-56
2022/07/07 02:52:59;;;;;;;5.68;4.78;;;;;;;15.62;100.00;99227.69;5089668;28;20052;-56
2022/07/07 02:55:25;;;;;;;9.68;3.90;;;;;;;15.72;100.00;99240.72;5089525;28;20090;-54
2022/07/07 02:57:52;;;;;;;8.10;4.05;;;;;;;15.60;100.00;99261.25;5089833;28;20434;-56
2022/07/07 03:00:18;;;;;;;8.15;3.95;;;;;;;15.81;100.00;99254.91;5089525;28;20052;-55
2022/07/07 03:02:44;;;;;;;5.20;3.83;;;;;;;15.90;100.00;99262.81;5089523;28;20063;-55
2022/07/07 03:05:11;;;;;;;6.80;3.88;;;;;;;15.77;100.00;99254.94;5089370;28;20058;-57
2022/07/07 03:07:38;;;;;;;8.20;3.92;;;;;;;15.75;100.00;99251.75;5089269;28;20047;-55
2022/07/07 03:10:05;;;;;;;8.25;4.55;;;;;;;15.82;100.00;99270.31;5089768;28;20048;-56
2022/07/07 03:12:32;;;;;;;3.90;3.60;;;;;;;15.94;100.00;99280.19;5089326;28;20181;-55
2022/07/07 03:14:58;;;;;;;4.05;3.63;;;;;;;15.88;100.00;99290.84;5089454;28;20048;-56
2022/07/07 03:17:24;;;;;;;6.53;3.95;;;;;;;15.98;100.00;99294.78;5089478;28;20514;-56
2022/07/07 03:19:50;;;;;;;5.88;3.20;;;;;;;15.87;100.00;99300.31;5089404;28;20048;-56
2022/07/07 03:22:17;;;;;;;7.40;4.40;;;;;;;15.98;100.00;99303.84;5089240;28;20056;-56
2022/07/07 03:24:44;;;;;;;8.27;4.07;;;;;;;15.96;100.00;99303.47;5091239;28;20205;-56
2022/07/07 03:27:10;;;;;;;6.30;3.72;;;;;;;16.03;100.00;99318.47;5092668;28;20094;-57
2022/07/07 03:29:36;;;;;;;5.10;3.85;;;;;;;16.05;100.00;99322.41;5092854;28;20075;-56
2022/07/07 03:32:03;;;;;;;4.72;4.00;;;;;;;16.00;100.00;99323.63;5092730;28;20075;-55
2022/07/07 03:34:29;;;;;;;9.85;3.80;;;;;;;16.09;100.00;99337.00;5092428;28;20051;-56
2022/07/07 03:36:55;;;;;;;7.85;3.20;;;;;;;15.90;100.00;99335.47;5092422;28;20486;-56
2022/07/07 03:39:22;;;;;;;6.38;3.40;;;;;;;15.93;100.00;99359.56;5092371;28;20062;-55
2022/07/07 03:41:49;;;;;;;3.72;3.40;;;;;;;15.85;100.00;99360.75;5092649;28;20059;-55
2022/07/07 03:44:15;;;;;;;8.65;3.35;;;;;;;15.76;100.00;99380.50;5092401;28;20139;-55
2022/07/07 03:46:41;;;;;;;5.95;3.67;;;;;;;15.70;100.00;99368.25;5092754;28;20050;-55
2022/07/07 03:49:08;;;;;;;5.80;3.20;;;;;;;15.79;100.00;99351.25;5092392;28;20048;-56
2022/07/07 03:51:34;;;;;;;5.38;3.60;;;;;;;15.76;100.00;99350.09;5092604;28;20059;-56
2022/07/07 03:54:00;;;;;;;5.32;4.03;;;;;;;15.91;100.00;99364.69;5092330;28;20051;-57
2022/07/07 03:56:26;;;;;;;3.42;3.20;;;;;;;15.91;100.00;99364.69;5092190;28;20047;-56
2022/07/07 03:58:53;;;;;;;6.70;3.40;;;;;;;15.79;100.00;99370.63;5092319;28;20562;-56
2022/07/07 04:01:20;;;;;;;5.90;3.50;;;;;;;15.78;100.00;99374.56;5092389;28;20151;-55
2022/07/07 04:03:46;;;;;;;5.63;3.88;;;;;;;15.77;100.00;99373.78;5092280;28;20052;-55
2022/07/07 04:06:12;;;;;;;4.45;3.97;;;;;;;15.82;100.00;99358.78;5092454;28;20357;-56
2022/07/07 04:08:39;;;;;;;4.32;3.63;;;;;;;15.94;100.00;99361.13;5092727;28;20056;-56
2022/07/07 04:11:05;;;;;;;5.10;4.00;;;;;;;15.85;100.00;99369.03;5092458;28;20044;-57
2022/07/07 04:13:32;;;;;;;5.53;4.50;;;;;;;16.00;100.00;99369.84;5092223;28;20087;-55
2022/07/07 04:15:59;;;;;;;7.13;3.60;;;;;;;16.04;100.00;99378.13;5091996;28;20060;-55
2022/07/07 04:18:25;;;;;;;6.70;3.58;;;;;;;16.08;100.00;99376.94;5092105;28;20052;-57
2022/07/07 04:20:52;;;;;;;5.05;3.60;;;;;;;16.09;100.00;99375.72;5091775;28;20051;-57
2022/07/07 04:23:18;;;;;;;7.22;3.90;;;;;;;16.09;100.00;99392.31;5092011;28;20062;-56
2022/07/07 04:25:44;;;;;;;4.28;3.28;;;;;;;16.17;100.00;99404.19;5091813;28;20143;-55
2022/07/07 04:28:11;;;;;;;11.82;3.40;;;;;;;15.97;100.00;99399.06;5091769;28;20181;-57
2022/07/07 04:30:37;;;;;;;4.45;3.80;;;;;;;15.91;100.00;99399.84;5091641;28;20507;-56
2022/07/07 04:33:04;;;;;;;3.72;3.10;;;;;;;15.82;100.00;99397.47;5091511;28;20453;-55
2022/07/07 04:35:30;;;;;;;5.60;2.80;;;;;;;15.82;100.00;99407.75;5091275;28;20699;-55
2022/07/07 04:37:57;;;;;;;8.63;3.53;;;;;;;15.91;100.00;99421.97;5091533;28;20059;-55
2022/07/07 04:40:23;;;;;;;4.25;3.38;;;;;;;15.88;100.00;99414.47;5091513;28;20138;-56
2022/07/07 04:42:50;;;;;;;5.50;3.67;;;;;;;16.09;100.00;99417.22;5091548;28;20048;-58
2022/07/07 04:45:16;;;;;;;2.47;2.28;;;;;;;16.25;100.00;99441.72;5091740;28;20461;-56
2022/07/07 04:47:43;;;;;;;8.32;3.20;;;;;;;16.17;100.00;99449.22;5091411;28;20044;-56
2022/07/07 04:50:12;;;;;;;3.00;2.60;;;;;;;16.06;100.00;99453.97;5091468;28;20052;-56
2022/07/07 04:52:39;;;;;;;8.88;3.38;;;;;;;16.24;100.00;99465.03;5091334;28;20048;-57
2022/07/07 04:55:06;;;;;;;3.95;2.40;;;;;;;16.27;100.00;99455.94;5091418;28;20087;-57
2022/07/07 04:57:33;;;;;;;5.45;3.45;;;;;;;16.40;100.00;99454.34;5091684;28;20142;-55
2022/07/07 05:00:00;;;;;;;3.75;2.50;;;;;;;16.33;100.00;99476.50;5090896;28;20503;-56
2022/07/07 05:02:26;;;;;;;6.70;4.82;;;;;;;16.52;100.00;99475.28;5090839;28;20565;-56
2022/07/07 05:04:53;;;;;;;15.00;11.38;;;;;;;16.47;100.00;99487.56;5091154;28;20515;-56
2022/07/07 05:07:20;;;;;;;14.82;8.88;;;;;;;16.66;100.00;99483.59;5091318;28;20493;-57
2022/07/07 05:09:46;;;;;;;10.00;7.05;;;;;;;16.75;100.00;99493.47;5091148;28;20051;-57
2022/07/07 05:12:12;;;;;;;7.32;4.47;;;;;;;16.61;100.00;99500.59;5091015;28;20055;-56
2022/07/07 05:14:39;;;;;;;9.57;4.60;;;;;;;16.68;100.00;99510.84;5090767;28;20055;-57
2022/07/07 05:17:05;;;;;;;43.75;37.83;;;;;;;16.77;100.00;99522.34;5091217;28;20130;-59
2022/07/07 05:19:31;;;;;;;5.72;4.53;;;;;;;16.81;100.00;99528.66;5090880;28;20233;-58
2022/07/07 05:21:57;;;;;;;5.15;2.67;;;;;;;17.02;100.00;99519.50;5090733;28;20139;-58
2022/07/07 05:24:25;;;;;;;5.28;2.50;;;;;;;16.92;100.00;99515.56;5090786;28;20110;-57
2022/07/07 05:26:51;;;;;;;5.13;2.50;;;;;;;17.13;100.00;99519.50;5090796;28;20048;-57
2022/07/07 05:29:17;;;;;;;6.40;4.65;;;;;;;17.36;100.00;99508.72;5090631;28;20075;-57
2022/07/07 05:31:43;;;;;;;6.88;4.65;;;;;;;17.52;100.00;99501.91;5090870;28;20051;-57
2022/07/07 05:34:10;;;;;;;3.78;2.50;;;;;;;17.63;100.00;99484.03;5090569;28;20242;-57
2022/07/07 05:36:36;;;;;;;4.50;2.15;;;;;;;18.10;100.00;99444.94;5090819;28;20130;-57
2022/07/07 05:39:02;;;;;;;5.03;2.33;;;;;;;19.23;100.00;99275.41;5090835;28;20086;-60
2022/07/07 05:41:29;;;;;;;3.05;2.30;;;;;;;19.21;100.00;99049.94;5090555;28;20147;-60
2022/07/07 05:43:55;;;;;;;4.10;2.25;;;;;;;20.31;100.00;98731.50;5090683;28;20048;-62
2022/07/07 05:46:22;;;;;;;5.32;2.00;;;;;;;21.38;100.00;98429.91;5090564;28;20063;-60
2022/07/07 05:48:48;;;;;;;3.85;2.20;;;;;;;22.12;100.00;98109.25;5089394;28;20048;-59
2022/07/07 05:51:15;;;;;;;7.65;2.55;;;;;;;22.29;100.00;98081.78;5090368;28;20089;-56
2022/07/07 05:53:41;;;;;;;7.65;2.53;;;;;;;23.11;100.00;98027.50;5090312;28;20134;-62
2022/07/07 05:56:07;;;;;;;4.78;2.67;;;;;;;23.74;100.00;98005.06;5090588;28;20491;-63
2022/07/07 05:58:34;;;;;;;6.68;3.65;;;;;;;23.95;100.00;98008.72;5090312;28;20052;-63
2022/07/07 06:01:00;;;;;;;3.47;2.10;;;;;;;24.22;100.00;98013.22;5090657;28;20048;-62
2022/07/07 06:03:27;;;;;;;8.20;2.55;;;;;;;24.42;100.00;98007.72;5090666;28;20621;-62
2022/07/07 06:05:53;;;;;;;7.85;4.40;;;;;;;25.33;100.00;98023.69;5090460;28;20063;-62
2022/07/07 06:08:20;;;;;;;3.00;1.70;;;;;;;25.20;100.00;98076.56;5090312;28;20396;-62
2022/07/07 06:10:46;;;;;;;3.85;1.80;;;;;;;25.75;100.00;98061.63;5090088;28;20048;-62
2022/07/07 06:13:12;;;;;;;3.83;1.50;;;;;;;25.05;100.00;98108.19;5090305;28;20056;-59
2022/07/07 06:15:39;;;;;;;8.50;2.55;;;;;;;24.53;100.00;98045.56;5089975;28;20063;-59
2022/07/07 06:18:06;;;;;;;6.32;2.40;;;;;;;25.39;100.00;98058.19;5090072;28;20076;-55
2022/07/07 06:20:32;;;;;;;4.88;1.95;;;;;;;25.02;100.00;98066.34;5089955;28;20495;-57
2022/07/07 06:22:59;;;;;;;3.63;2.10;;;;;;;25.30;100.00;98100.41;5089911;28;20056;-62
2022/07/07 06:25:26;;;;;;;5.47;2.25;;;;;;;25.66;100.00;98078.63;5089696;28;20052;-62
2022/07/07 06:27:52;;;;;;;7.35;2.80;;;;;;;26.16;100.00;98114.91;5089746;28;20051;-62
2022/07/07 06:30:18;;;;;;;6.18;1.52;;;;;;;25.33;100.00;98097.41;5089975;28;20503;-54
2022/07/07 06:32:46;;;;;;;3.58;1.92;;;;;;;24.78;100.00;98050.50;5089715;28;20048;-62
2022/07/07 06:35:13;;;;;;;5.00;1.73;;;;;;;25.53;100.00;98073.41;5089913;28;20063;-62
2022/07/07 06:37:39;;;;;;;9.10;1.60;;;;;;;26.39;100.00;98135.50;5089971;28;20075;-62
2022/07/07 06:40:07;;;;;;;3.50;1.40;;;;;;;26.31;100.00;98190.63;5089899;28;20051;-62
2022/07/07 06:42:33;;;;;;;3.78;3.38;;;;;;;26.50;100.00;98186.25;5089811;28;20048;-62
2022/07/07 06:44:59;;;;;;;3.10;1.30;;;;;;;26.65;100.00;98220.59;5089674;28;20147;-62
2022/07/07 06:47:26;;;;;;;2.58;1.50;;;;;;;25.93;100.00;98221.38;5089807;28;20099;-62
2022/07/07 06:49:53;;;;;;;3.78;1.38;;;;;;;25.38;100.00;98171.66;5089949;28;20074;-60
2022/07/07 06:52:19;;;;;;;5.63;2.08;;;;;;;24.50;100.00;98075.31;5089466;28;20507;-61
2022/07/07 06:54:45;;;;;;;2.60;1.30;;;;;;;24.16;100.00;98074.00;5088913;28;20048;-62
2022/07/07 06:57:12;;;;;;;2.38;1.38;;;;;;;25.27;100.00;98116.19;5089701;28;20561;-60
2022/07/07 06:59:38;;;;;;;2.40;1.60;;;;;;;24.71;100.00;98143.38;5090880;28;20510;-59
2022/07/07 07:02:04;;;;;;;4.47;1.30;;;;;;;24.34;100.00;98124.19;5093203;28;20408;-54
2022/07/07 07:04:31;;;;;;;2.97;1.27;;;;;;;25.30;100.00;98136.88;5092858;28;20223;-60
2022/07/07 07:06:58;;;;;;;4.53;1.52;;;;;;;25.05;100.00;98107.44;5093000;28;20048;-61
2022/07/07 07:09:25;;;;;;;3.90;1.30;;;;;;;24.39;100.00;98133.91;5093038;28;20120;-53
2022/07/07 07:11:51;;;;;;;2.00;1.60;;;;;;;23.66;100.00;98071.03;5093018;28;20142;-59
2022/07/07 07:14:18;;;;;;;5.10;2.30;;;;;;;23.59;100.00;98038.63;5092831;28;20056;-60
2022/07/07 07:16:44;;;;;;;3.95;1.85;;;;;;;24.50;100.00;98102.56;5092812;28;20101;-59
2022/07/07 07:19:10;;;;;;;3.10;1.30;;;;;;;24.09;100.00;98111.53;5092733;28;20048;-56
2022/07/07 07:21:36;;;;;;;2.08;1.17;;;;;;;25.37;100.00;98194.59;5092883;28;20080;-55
2022/07/07 07:24:04;;;;;;;2.70;1.35;;;;;;;25.83;100.00;98238.88;5093121;28;20407;-63
2022/07/07 07:26:30;;;;;;;3.75;1.40;;;;;;;26.63;100.00;98259.69;5093012;28;20044;-60
2022/07/07 07:28:56;;;;;;;9.63;1.77;;;;;;;26.63;100.00;98348.88;5092620;28;20047;-59
2022/07/07 07:31:23;;;;;;;2.00;1.30;;;;;;;26.58;100.00;98381.28;5092842;28;20173;-59
2022/07/07 07:33:49;;;;;;;2.85;1.00;;;;;;;26.84;100.00;98431.16;5092602;28;20426;-58
2022/07/07 07:36:15;;;;;;;3.92;1.35;;;;;;;26.74;100.00;98363.06;5092558;28;20054;-58
2022/07/07 07:38:43;;;;;;;2.70;0.90;;;;;;;27.55;100.00;98426.78;5092775;28;20083;-58
2022/07/07 07:41:11;;;;;;;5.57;1.00;;;;;;;26.95;100.00;98428.47;5092269;28;20060;-61
2022/07/07 07:43:38;;;;;;;1.75;0.82;;;;;;;25.90;100.00;98396.44;5092497;28;20083;-58
2022/07/07 07:46:04;;;;;;;2.97;0.90;;;;;;;24.91;100.00;98346.56;5092511;28;20098;-58
2022/07/07 07:48:31;;;;;;;7.45;5.57;;;;;;;24.99;100.00;98283.22;5092361;28;20514;-59
2022/07/07 07:50:58;;;;;;;4.70;2.45;;;;;;;25.56;100.00;98299.72;5092160;28;20498;-59
2022/07/07 07:53:24;;;;;;;5.13;1.48;;;;;;;25.69;100.00;98288.94;5092295;28;20101;-58
2022/07/07 07:55:51;;;;;;;2.75;1.00;;;;;;;25.21;100.00;98362.16;5092196;28;20143;-57
2022/07/07 07:58:18;;;;;;;2.00;1.00;;;;;;;25.89;100.00;98350.00;5092321;28;20131;-58
2022/07/07 08:00:44;;;;;;;2.22;0.82;;;;;;;25.49;100.00;98452.44;5092038;28;20052;-58
2022/07/07 08:03:10;;;;;;;1.77;0.90;;;;;;;27.02;100.00;98444.91;5092351;28;20586;-59
2022/07/07 08:05:37;;;;;;;1.88;1.02;;;;;;;27.54;100.00;98455.44;5092362;28;20128;-59
2022/07/07 08:08:03;;;;;;;4.45;1.10;;;;;;;28.15;100.00;98551.75;5092341;28;20213;-59
2022/07/07 08:10:29;;;;;;;4.05;1.00;;;;;;;28.07;100.00;98549.91;5091152;28;20419;-60
2022/07/07 08:12:56;;;;;;;2.50;0.88;;;;;;;27.63;100.00;98526.44;5091974;28;20051;-59
2022/07/07 08:15:23;;;;;;;4.47;1.13;;;;;;;26.77;100.00;98432.38;5091824;28;20052;-57
2022/07/07 08:17:51;;;;;;;2.08;0.90;;;;;;;25.49;100.00;98354.22;5092185;28;20417;-59
2022/07/07 08:20:18;;;;;;;2.58;1.00;;;;;;;25.58;100.00;98367.34;5092082;28;20073;-55
2022/07/07 08:22:44;;;;;;;2.25;1.10;;;;;;;25.11;100.00;98344.66;5092203;28;20052;-57
2022/07/07 08:25:10;;;;;;;3.20;1.10;;;;;;;24.54;100.00;98307.66;5091931;28;20107;-58
2022/07/07 08:27:37;;;;;;;1.95;1.60;;;;;;;24.93;100.00;98304.81;5091931;28;20536;-58
2022/07/07 08:30:05;;;;;;;2.90;1.27;;;;;;;26.43;100.00;98374.94;5091875;28;20054;-58
2022/07/07 08:32:32;;;;;;;1.88;1.52;;;;;;;27.11;100.00;98429.91;5091818;28;20048;-59
2022/07/07 08:34:58;;;;;;;2.58;1.10;;;;;;;27.91;100.00;98520.31;5091814;28;20114;-58
2022/07/07 08:37:25;;;;;;;2.65;1.58;;;;;;;27.69;100.00;98546.97;5091922;28;20056;-59
2022/07/07 08:39:51;;;;;;;3.22;1.10;;;;;;;28.67;100.00;98559.31;5091690;28;20048;-58
2022/07/07 08:42:17;;;;;;;4.80;1.70;;;;;;;28.97;100.00;98564.63;5091750;28;20408;-57
2022/07/07 08:44:44;;;;;;;2.22;1.20;;;;;;;29.51;100.00;98607.72;5091591;28;20083;-59
2022/07/07 08:47:10;;;;;;;2.38;1.10;;;;;;;29.83;100.00;98640.72;5091573;28;20051;-58
2022/07/07 08:49:37;;;;;;;1.27;0.80;;;;;;;29.85;100.00;98636.06;5092008;28;20551;-58
2022/07/07 08:52:05;;;;;;;1.80;0.80;;;;;;;29.36;100.00;98632.56;5091445;28;20058;-55
2022/07/07 08:54:33;;;;;;;4.35;1.08;;;;;;;29.73;100.00;98606.28;5091085;28;20138;-55
2022/07/07 08:56:59;;;;;;;2.33;1.20;;;;;;;30.32;100.00;98604.56;5091207;28;20063;-56
2022/07/07 08:59:25;;;;;;;3.15;1.00;;;;;;;28.97;100.00;98646.44;5091220;28;20052;-54
2022/07/07 09:01:56;;;;;;;3.92;0.82;;;;;;;29.66;100.00;98618.84;5091072;28;20048;-57
2022/07/07 09:04:23;;;;;;;2.35;0.80;;;;;;;29.87;100.00;98619.41;5091480;28;20056;-58
2022/07/07 09:06:54;;;;;;;3.47;1.00;;;;;;;30.21;100.00;98622.28;5091101;28;20530;-59
2022/07/07 09:09:29;;;;;;;4.47;1.00;;;;;;;30.69;100.00;98644.66;5091283;28;20431;-57
2022/07/07 09:12:00;;;;;;;1.70;0.90;;;;;;;30.81;100.00;98659.59;5090996;28;20147;-64
2022/07/07 09:14:34;;;;;;;1.92;1.20;;;;;;;30.49;100.00;98630.78;5090858;28;20052;-64
2022/07/07 09:17:00;;;;;;;3.95;1.00;;;;;;;30.74;100.00;98648.75;5091391;28;20059;-64
2022/07/07 09:19:26;;;;;;;1.38;0.90;;;;;;;28.58;100.00;98633.59;5091168;28;20581;-64
2022/07/07 09:21:53;;;;;;;1.27;0.85;;;;;;;28.04;100.00;98582.66;5090804;28;20056;-63
2022/07/07 09:24:20;;;;;;;2.97;0.90;;;;;;;28.31;100.00;98572.13;5090969;28;20051;-64
2022/07/07 09:26:48;;;;;;;3.92;1.02;;;;;;;28.08;100.00;98583.19;5090857;28;20094;-63
2022/07/07 09:29:17;;;;;;;4.72;0.90;;;;;;;28.14;100.00;98564.28;5091098;28;20087;-63
2022/07/07 09:31:56;;;;;;;3.10;1.30;;;;;;;28.76;100.00;98569.63;5090732;28;20052;-60
2022/07/07 09:34:24;;;;;;;2.72;1.00;;;;;;;28.73;100.00;98591.16;5090775;28;20052;-58
2022/07/07 09:39:45;;;;;;;15.10;13.68;;;;;;;29.11;100.00;98613.69;5090770;28;20078;-62
2022/07/07 09:42:19;;;;;;;1.38;1.10;;;;;;;29.72;100.00;98645.06;5090540;28;20055;-58
2022/07/07 09:44:47;;;;;;;5.00;3.92;;;;;;;29.17;100.00;98660.44;5090522;28;20048;-57
2022/07/07 09:47:14;;;;;;;5.00;2.20;;;;;;;29.41;100.00;98682.63;5090623;28;20052;-57
2022/07/07 09:49:43;;;;;;;2.88;1.30;;;;;;;28.64;100.00;98638.53;5090453;28;20507;-57
2022/07/07 09:52:15;;;;;;;4.15;3.10;;;;;;;28.76;100.00;98652.19;5090524;28;20073;-59
2022/07/07 09:54:47;;;;;;;1.07;0.67;;;;;;;28.05;100.00;98634.13;5090240;28;20052;-59
2022/07/07 09:57:13;;;;;;;1.63;0.95;;;;;;;28.26;100.00;98617.94;5090505;28;20290;-57
2022/07/07 09:59:41;;;;;;;4.50;1.20;;;;;;;27.83;100.00;98646.72;5090169;28;20052;-58
2022/07/07 10:02:12;;;;;;;3.83;2.67;;;;;;;27.53;100.00;98629.22;5090348;28;20044;-57
2022/07/07 10:04:42;;;;;;;0.98;0.80;;;;;;;27.13;100.00;98613.88;5090155;28;20105;-56
2022/07/07 10:07:11;;;;;;;4.72;1.08;;;;;;;26.30;100.00;98566.34;5090260;28;20613;-53
2022/07/07 10:09:42;;;;;;;3.25;1.10;;;;;;;27.01;100.00;98516.50;5090151;28;20070;-57
2022/07/07 10:12:10;;;;;;;1.30;1.15;;;;;;;26.81;100.00;98567.13;5090036;28;20293;-52
2022/07/07 10:14:42;;;;;;;5.72;1.25;;;;;;;27.10;100.00;98552.16;5090426;28;20101;-53
2022/07/07 10:17:08;;;;;;;1.42;1.02;;;;;;;26.43;100.00;98524.66;5090141;28;20083;-54
2022/07/07 10:19:35;;;;;;;2.80;1.13;;;;;;;25.71;100.00;98543.88;5090236;28;20193;-59
2022/07/07 10:22:04;;;;;;;2.13;0.80;;;;;;;25.16;100.00;98555.56;5089953;28;20113;-57
2022/07/07 10:24:32;;;;;;;2.50;0.90;;;;;;;25.07;100.00;98545.97;5089895;28;20048;-53
2022/07/07 10:26:59;;;;;;;3.08;1.40;;;;;;;25.69;100.00;98533.16;5089948;28;20070;-57
2022/07/07 10:29:42;;;;;;;4.43;1.00;;;;;;;25.91;100.00;98551.66;5089872;28;20055;-57
2022/07/07 10:32:11;;;;;;;3.90;0.90;;;;;;;25.49;100.00;98581.50;5089977;28;20237;-53
2022/07/07 10:34:38;;;;;;;2.35;0.93;;;;;;;25.98;100.00;98574.50;5089023;28;20530;-58
2022/07/07 10:37:06;;;;;;;1.17;0.95;;;;;;;25.74;100.00;98552.09;5089688;28;20048;-52
2022/07/07 10:39:38;;;;;;;3.28;1.00;;;;;;;25.76;100.00;98513.09;5089629;28;20055;-55
2022/07/07 10:42:13;;;;;;;1.50;1.05;;;;;;;25.65;100.00;98555.00;5090261;28;20121;-57
2022/07/07 10:44:40;;;;;;;2.65;0.98;;;;;;;25.60;100.00;98564.09;5089797;28;20048;-58
2022/07/07 10:47:29;;;;;;;2.38;1.10;;;;;;;25.18;100.00;98567.09;5089775;28;20143;-55
2022/07/07 10:49:56;;;;;;;1.50;0.93;;;;;;;25.27;100.00;98550.97;5089735;28;20051;-56
2022/07/07 10:52:24;;;;;;;1.92;0.93;;;;;;;25.73;100.00;98547.00;5089009;28;20052;-57
2022/07/07 10:54:52;;;;;;;1.92;0.90;;;;;;;25.41;100.00;98562.72;5089106;28;20051;-54
2022/07/07 10:57:19;;;;;;;1.80;1.05;;;;;;;25.04;100.00;98490.81;5089143;28;20117;-58
2022/07/07 11:00:09;;;;;;;3.95;2.83;;;;;;;25.55;100.00;98550.72;5089263;28;20048;-57
2022/07/07 11:02:37;;;;;;;2.58;0.85;;;;;;;25.64;100.00;98591.97;5089122;28;20499;-57
2022/07/07 11:05:24;;;;;;;2.17;1.00;;;;;;;25.72;100.00;98576.31;5089152;28;20461;-53
2022/07/07 11:08:11;;;;;;;2.38;1.00;;;;;;;25.21;100.00;98589.34;5089366;28;20051;-57
2022/07/07 11:10:46;;;;;;;5.38;1.45;;;;;;;24.36;100.00;98446.59;5089211;28;20048;-57
2022/07/07 11:13:14;;;;;;;2.25;1.10;;;;;;;24.65;100.00;98422.75;5089605;28;20148;-54
2022/07/07 11:15:41;;;;;;;2.03;1.27;;;;;;;24.51;100.00;98494.31;5089367;28;20044;-57
2022/07/07 11:18:12;;;;;;;2.25;0.80;;;;;;;24.47;100.00;98518.94;5090013;28;20511;-56
2022/07/07 11:20:53;;;;;;;1.92;1.10;;;;;;;24.47;100.00;98478.94;5089120;28;20076;-57
2022/07/07 11:23:20;;;;;;;4.65;1.13;;;;;;;24.10;100.00;98501.50;5089124;28;20574;-57
2022/07/07 11:25:46;;;;;;;3.20;1.20;;;;;;;23.47;100.00;98541.13;5089234;28;20533;-57
2022/07/07 11:28:13;;;;;;;2.20;1.70;;;;;;;23.74;100.00;98469.59;5089120;28;20052;-56